Time;durP1;ratioP1;P1;durP2;ratioP2;P2;SDS_P1;SDS_P2;PMS_P1;PMS_P2;Temp;Humidity;BMP_temperature;BMP_pressure;BME280_temperature;BME280_humidity;BME280_pressure;Samples;Min_cycle;Max_cycle;Signal;HPM_P1;HPM_P2
2022/05/04 00:00:56;;;;;;;8.53;2.83;;;;;;;18.46;35.81;102136.31;5013779;28;20541;-71
2022/05/04 00:03:21;;;;;;;13.17;3.77;;;;;;;18.19;36.43;102137.78;5035051;28;20026;-71
2022/05/04 00:05:48;;;;;;;12.03;3.50;;;;;;;18.48;36.30;102138.94;5026068;28;20397;-71
2022/05/04 00:08:13;;;;;;;13.53;3.50;;;;;;;18.16;36.46;102147.56;5029157;28;20075;-72
2022/05/04 00:10:39;;;;;;;15.37;3.37;;;;;;;17.00;38.56;102147.88;5031758;28;20439;-71
2022/05/04 00:13:04;;;;;;;10.13;3.67;;;;;;;18.05;36.48;102134.53;5030731;28;20087;-72
2022/05/04 00:15:30;;;;;;;7.87;2.80;;;;;;;18.08;36.77;102143.31;5028501;28;20457;-71
2022/05/04 00:17:55;;;;;;;8.70;3.10;;;;;;;17.31;37.58;102142.09;5027349;28;20021;-71
2022/05/04 00:20:20;;;;;;;6.73;2.93;;;;;;;18.04;36.93;102138.97;5029414;28;20021;-72
2022/05/04 00:22:46;;;;;;;10.80;3.90;;;;;;;18.09;36.60;102137.13;5031232;28;20211;-71
2022/05/04 00:25:11;;;;;;;6.90;3.30;;;;;;;17.76;36.53;102138.63;5030404;28;20108;-72
2022/05/04 00:27:37;;;;;;;8.67;2.83;;;;;;;17.24;37.89;102145.72;5027793;28;20036;-72
2022/05/04 00:30:05;;;;;;;11.77;3.07;;;;;;;18.12;36.48;102142.34;5030433;28;20021;-72
2022/05/04 00:32:30;;;;;;;6.30;3.00;;;;;;;17.29;37.89;102138.59;5025574;28;20029;-71
2022/05/04 00:34:56;;;;;;;7.00;2.50;;;;;;;17.68;36.98;102141.44;5030235;28;20047;-72
2022/05/04 00:37:21;;;;;;;11.70;3.40;;;;;;;17.93;36.30;102133.03;5029369;28;20040;-72
2022/05/04 00:39:47;;;;;;;6.87;3.30;;;;;;;18.35;36.13;102137.44;5029998;28;20511;-71
2022/05/04 00:42:18;;;;;;;7.63;3.80;;;;;;;18.54;36.63;102132.63;5030204;28;20033;-72
2022/05/04 00:44:46;;;;;;;8.30;3.20;;;;;;;18.31;35.71;102126.06;5029478;28;20029;-72
2022/05/04 00:47:12;;;;;;;5.20;2.87;;;;;;;18.05;36.14;102124.84;5030949;28;20033;-72
2022/05/04 00:49:39;;;;;;;6.83;3.03;;;;;;;17.24;37.41;102140.44;5030545;28;20373;-72
2022/05/04 00:52:05;;;;;;;7.30;3.03;;;;;;;17.67;37.35;102134.38;5030533;28;20111;-71
2022/05/04 00:54:32;;;;;;;8.43;3.23;;;;;;;17.95;37.03;102131.22;5031687;28;20449;-72
2022/05/04 00:56:59;;;;;;;8.53;3.47;;;;;;;18.28;35.87;102131.41;5027635;28;20025;-72
2022/05/04 00:59:25;;;;;;;8.97;3.50;;;;;;;18.30;36.16;102126.97;5018548;28;20029;-72
2022/05/04 01:01:52;;;;;;;8.87;3.10;;;;;;;17.87;36.84;102126.03;5030514;28;20037;-71
2022/05/04 01:04:18;;;;;;;6.23;2.60;;;;;;;17.54;36.73;102123.16;5026356;28;20037;-71
2022/05/04 01:06:44;;;;;;;5.23;2.80;;;;;;;18.14;36.38;102129.94;5025073;28;20393;-71
2022/05/04 01:09:09;;;;;;;11.53;3.33;;;;;;;16.98;37.73;102122.38;5030456;28;20093;-72
2022/05/04 01:11:35;;;;;;;5.63;2.57;;;;;;;18.19;35.94;102121.03;5029849;28;20056;-72
2022/05/04 01:14:09;;;;;;;6.40;2.80;;;;;;;17.89;36.20;102126.03;5028805;28;20028;-71
2022/05/04 01:16:36;;;;;;;6.37;2.80;;;;;;;17.34;36.73;102125.28;5024731;28;20076;-72
2022/05/04 01:19:02;;;;;;;6.47;2.73;;;;;;;18.01;35.97;102128.47;5024846;28;20124;-72
2022/05/04 01:21:27;;;;;;;6.53;3.13;;;;;;;17.57;36.48;102122.22;5030053;28;20031;-72
2022/05/04 01:24:02;;;;;;;7.13;2.30;;;;;;;17.30;37.82;102129.78;5028534;28;20116;-72
2022/05/04 01:26:28;;;;;;;6.97;2.83;;;;;;;16.66;38.08;102135.16;5026852;28;20119;-72
2022/05/04 01:28:53;;;;;;;5.80;2.83;;;;;;;17.62;36.33;102123.03;5029186;28;20021;-71
2022/05/04 01:31:18;;;;;;;3.20;2.30;;;;;;;17.94;35.57;102122.44;5028996;28;20021;-72
2022/05/04 01:33:44;;;;;;;3.93;2.53;;;;;;;17.37;37.61;102122.63;5045975;28;20044;-72
2022/05/04 01:36:09;;;;;;;7.47;2.73;;;;;;;17.87;35.69;102127.84;5028810;28;20393;-72
2022/05/04 01:38:35;;;;;;;8.37;2.70;;;;;;;16.59;37.48;102130.88;5027481;28;20087;-71
2022/05/04 01:41:01;;;;;;;5.43;2.73;;;;;;;18.05;35.57;102119.56;5025700;28;20061;-72
2022/05/04 01:43:26;;;;;;;7.60;3.03;;;;;;;17.97;35.95;102116.22;5027642;28;20037;-71
2022/05/04 01:45:52;;;;;;;5.67;2.93;;;;;;;18.48;34.84;102118.59;5029428;28;20040;-72
2022/05/04 01:48:18;;;;;;;5.47;2.70;;;;;;;18.20;35.15;102112.19;5026472;28;20080;-71
2022/05/04 01:50:43;;;;;;;9.90;2.97;;;;;;;18.21;35.19;102121.88;5029030;28;20029;-72
2022/05/04 01:53:08;;;;;;;7.83;2.93;;;;;;;18.05;35.57;102116.91;5029763;28;20117;-71
2022/05/04 01:55:35;;;;;;;6.80;2.43;;;;;;;17.59;36.25;102120.44;5027614;28;20032;-72
2022/05/04 01:58:02;;;;;;;8.20;2.80;;;;;;;18.03;35.71;102116.06;5027054;28;20033;-72
2022/05/04 02:00:28;;;;;;;5.27;2.90;;;;;;;17.55;35.65;102118.75;5029128;28;20036;-72
2022/05/04 02:02:54;;;;;;;9.63;2.67;;;;;;;17.97;35.49;102110.91;5027510;28;20059;-72
2022/05/04 02:05:20;;;;;;;3.30;2.47;;;;;;;18.00;35.56;102110.84;5029075;28;20029;-71
2022/05/04 02:07:46;;;;;;;6.63;2.87;;;;;;;17.90;35.85;102111.88;5026485;28;20118;-72
2022/05/04 02:10:11;;;;;;;5.73;2.87;;;;;;;17.66;35.62;102100.91;5026180;28;20075;-72
2022/05/04 02:12:37;;;;;;;5.80;2.60;;;;;;;17.24;36.97;102101.69;5029102;28;20078;-72
2022/05/04 02:15:08;;;;;;;4.87;2.50;;;;;;;17.62;36.05;102102.72;5029010;28;20021;-72
2022/05/04 02:17:34;;;;;;;10.90;3.00;;;;;;;17.58;36.12;102108.13;5026987;28;20973;-72
2022/05/04 02:19:59;;;;;;;11.47;3.17;;;;;;;17.09;36.49;102105.47;5027497;28;20036;-71
2022/05/04 02:22:24;;;;;;;7.27;3.27;;;;;;;17.19;36.58;102100.03;5026800;28;20029;-72
2022/05/04 02:24:50;;;;;;;6.30;2.43;;;;;;;17.30;36.59;102096.28;5028482;28;20033;-72
2022/05/04 02:27:15;;;;;;;7.83;3.37;;;;;;;17.25;37.09;102100.78;5026496;28;20029;-72
2022/05/04 02:29:41;;;;;;;6.77;2.87;;;;;;;17.12;37.63;102094.84;5024724;28;20025;-72
2022/05/04 02:32:07;;;;;;;7.33;2.93;;;;;;;17.18;37.20;102093.00;5029897;28;20192;-72
2022/05/04 02:34:32;;;;;;;3.70;2.97;;;;;;;17.23;36.93;102092.03;5029572;28;20064;-72
2022/05/04 02:39:41;;;;;;;9.70;3.67;;;;;;;16.83;37.37;102092.69;5025652;28;20072;-72
2022/05/04 02:42:07;;;;;;;5.73;2.87;;;;;;;16.81;37.20;102083.88;5028891;28;20473;-72
2022/05/04 02:44:32;;;;;;;11.80;3.70;;;;;;;16.66;39.05;102085.00;5028418;28;20065;-72
2022/05/04 02:46:57;;;;;;;14.80;3.00;;;;;;;16.65;38.62;102085.94;5026587;28;20044;-71
2022/05/04 02:49:23;;;;;;;10.93;3.53;;;;;;;16.66;37.93;102085.00;5027684;28;20020;-71
2022/05/04 02:51:48;;;;;;;6.37;2.97;;;;;;;16.61;38.24;102092.16;5026158;28;20579;-74
2022/05/04 02:54:14;;;;;;;9.80;4.07;;;;;;;16.33;38.75;102087.25;5028575;28;20025;-72
2022/05/04 02:56:39;;;;;;;12.43;3.60;;;;;;;16.23;39.07;102096.19;5026883;28;20029;-72
2022/05/04 02:59:05;;;;;;;6.30;2.70;;;;;;;16.25;38.83;102089.13;5043703;28;20025;-72
2022/05/04 03:04:14;;;;;;;9.60;3.23;;;;;;;16.42;38.64;102092.41;5027477;28;20072;-72
2022/05/04 03:06:41;;;;;;;6.50;2.93;;;;;;;16.02;39.61;102089.44;5026440;28;20034;-72
2022/05/04 03:09:08;;;;;;;6.97;3.33;;;;;;;15.89;39.84;102086.09;5028236;28;20036;-72
2022/05/04 03:14:20;;;;;;;7.90;3.43;;;;;;;15.37;41.33;102092.78;5030294;28;20044;-71
2022/05/04 03:16:48;;;;;;;14.27;4.60;;;;;;;15.59;40.69;102094.31;5029948;28;20367;-72
2022/05/04 03:19:14;;;;;;;8.93;3.37;;;;;;;15.83;40.18;102091.44;5026667;28;20025;-72
2022/05/04 03:21:39;;;;;;;5.57;3.20;;;;;;;15.57;40.78;102089.94;5047764;28;20167;-71
2022/05/04 03:24:05;;;;;;;6.07;3.30;;;;;;;15.51;40.56;102090.00;5032212;28;20021;-72
2022/05/04 03:26:31;;;;;;;6.43;3.23;;;;;;;15.64;40.44;102085.47;5030698;28;20040;-71
2022/05/04 03:28:56;;;;;;;7.90;3.27;;;;;;;15.78;40.71;102089.72;5029414;28;20032;-72
2022/05/04 03:31:22;;;;;;;8.57;3.70;;;;;;;15.80;40.52;102088.81;5032274;28;20021;-72
2022/05/04 03:33:47;;;;;;;11.67;3.23;;;;;;;15.47;41.20;102085.63;5032242;28;20059;-71
2022/05/04 03:36:13;;;;;;;9.30;3.53;;;;;;;15.64;40.90;102075.78;5026950;28;20037;-72
2022/05/04 03:38:38;;;;;;;8.17;3.40;;;;;;;15.67;40.38;102070.47;5032664;28;20037;-72
2022/05/04 03:41:04;;;;;;;6.57;3.10;;;;;;;15.49;41.16;102073.34;5031033;28;20561;-72
2022/05/04 03:43:29;;;;;;;11.87;3.20;;;;;;;15.50;40.88;102064.56;5032957;28;20022;-72
2022/05/04 03:45:55;;;;;;;9.77;3.60;;;;;;;15.46;41.46;102065.47;5031875;28;20029;-72
2022/05/04 03:48:21;;;;;;;10.17;3.57;;;;;;;15.50;41.35;102062.78;5029898;28;20496;-71
2022/05/04 03:50:46;;;;;;;10.87;3.30;;;;;;;15.62;40.70;102072.31;5028583;28;20041;-71
2022/05/04 03:53:15;;;;;;;8.50;3.40;;;;;;;15.50;40.99;102067.19;5032251;28;20465;-72
2022/05/04 03:55:40;;;;;;;8.60;4.40;;;;;;;15.52;41.12;102065.41;5031117;28;20420;-72
2022/05/04 03:58:06;;;;;;;6.40;3.77;;;;;;;15.38;41.74;102069.03;5031439;28;20420;-72
2022/05/04 04:00:31;;;;;;;13.17;4.00;;;;;;;15.49;41.17;102062.81;5031408;28;20116;-72
2022/05/04 04:02:56;;;;;;;10.73;3.70;;;;;;;15.29;41.77;102063.00;5030696;28;20041;-72
2022/05/04 04:05:23;;;;;;;6.27;3.50;;;;;;;15.31;42.32;102062.09;5030644;28;20037;-72
2022/05/04 04:07:49;;;;;;;9.67;4.40;;;;;;;15.32;41.28;102062.97;5029160;28;20083;-71
2022/05/04 04:10:14;;;;;;;9.27;4.23;;;;;;;15.47;41.18;102059.28;5031079;28;20032;-71
2022/05/04 04:12:40;;;;;;;12.93;3.80;;;;;;;15.67;41.71;102064.34;5030850;28;20112;-71
2022/05/04 04:15:06;;;;;;;7.07;4.30;;;;;;;15.52;41.13;102065.41;5030269;28;20041;-72
2022/05/04 04:17:31;;;;;;;7.23;3.50;;;;;;;15.24;41.63;102068.31;5030515;28;20053;-71
2022/05/04 04:22:40;;;;;;;9.93;4.30;;;;;;;15.32;42.11;102074.38;5029552;28;20048;-71
2022/05/04 04:25:06;;;;;;;9.27;3.93;;;;;;;15.07;42.75;102069.34;5030468;28;20033;-72
2022/05/04 04:27:33;;;;;;;10.27;3.77;;;;;;;15.40;41.53;102077.81;5031044;28;20039;-72
2022/05/04 04:29:59;;;;;;;8.93;3.60;;;;;;;15.39;41.48;102062.88;5030585;28;20473;-72
2022/05/04 04:32:24;;;;;;;11.17;4.17;;;;;;;15.53;41.89;102061.88;5039947;28;20025;-72
2022/05/04 04:34:50;;;;;;;7.67;3.67;;;;;;;15.19;42.58;102063.09;5032745;28;20033;-72
2022/05/04 04:37:15;;;;;;;12.27;4.70;;;;;;;15.11;42.25;102059.66;5031916;28;20260;-72
2022/05/04 04:39:41;;;;;;;11.60;4.20;;;;;;;15.28;41.90;102072.69;5030341;28;20048;-72
2022/05/04 04:42:06;;;;;;;10.43;3.83;;;;;;;15.56;41.55;102073.25;5034898;28;20037;-72
2022/05/04 04:44:32;;;;;;;11.73;4.00;;;;;;;15.57;41.37;102076.75;5029148;28;20417;-72
2022/05/04 04:46:57;;;;;;;15.97;5.23;;;;;;;15.57;41.13;102084.66;5027715;28;20240;-72
2022/05/04 04:49:22;;;;;;;9.60;4.50;;;;;;;15.56;41.59;102083.78;5030755;28;20083;-72
2022/05/04 04:51:48;;;;;;;11.20;4.13;;;;;;;15.44;41.84;102078.63;5045237;28;20075;-72
2022/05/04 04:54:13;;;;;;;8.00;4.47;;;;;;;15.55;42.08;102082.06;5028434;28;20030;-72
2022/05/04 04:56:38;;;;;;;6.70;3.90;;;;;;;15.75;41.75;102087.09;5027648;28;20458;-72
2022/05/04 04:59:04;;;;;;;11.33;4.70;;;;;;;15.70;41.54;102088.91;5034057;28;20021;-72
2022/05/04 05:01:29;;;;;;;10.37;3.70;;;;;;;15.66;41.43;102088.94;5030489;28;20469;-72
2022/05/04 05:03:55;;;;;;;8.20;3.83;;;;;;;15.69;41.81;102084.53;5029543;28;20037;-72
2022/05/04 05:06:22;;;;;;;9.77;4.53;;;;;;;15.64;42.01;102086.34;5009872;28;20095;-72
2022/05/04 05:08:48;;;;;;;13.83;4.50;;;;;;;15.71;41.85;102077.47;5029824;28;20024;-72
2022/05/04 05:11:13;;;;;;;12.47;4.33;;;;;;;15.77;41.71;102080.03;5030042;28;20087;-72
2022/05/04 05:16:06;;;;;;;12.33;4.23;;;;;;;15.86;41.06;102080.84;5029518;28;20469;-72
2022/05/04 05:16:24;;;;;;;14.73;5.10;;;;;;;15.78;41.34;102089.72;5030286;28;20037;-72
2022/05/04 05:18:50;;;;;;;11.03;3.87;;;;;;;15.96;41.50;102086.88;5028915;28;20030;-72
2022/05/04 05:21:16;;;;;;;13.03;3.77;;;;;;;16.01;41.54;102085.94;5029137;28;20060;-72
2022/05/04 05:23:41;;;;;;;13.17;4.70;;;;;;;16.22;40.90;102089.16;5027854;28;20022;-72
2022/05/04 05:26:06;;;;;;;7.80;3.67;;;;;;;16.31;40.42;102089.06;5026471;28;20064;-72
2022/05/04 05:28:32;;;;;;;8.60;4.00;;;;;;;16.41;40.91;102090.66;5024686;28;20025;-72
2022/05/04 05:30:57;;;;;;;17.03;5.10;;;;;;;15.98;40.15;102085.97;5021936;28;20041;-72
2022/05/04 05:33:22;;;;;;;13.80;4.10;;;;;;;16.42;40.79;102092.41;5022995;28;20025;-73
2022/05/04 05:35:48;;;;;;;12.17;5.17;;;;;;;16.27;40.48;102092.63;5020223;28;20034;-72
2022/05/04 05:38:13;;;;;;;11.67;4.27;;;;;;;16.44;39.91;102088.00;5021024;28;20033;-72
2022/05/04 05:40:38;;;;;;;14.07;4.33;;;;;;;16.03;40.58;102078.88;5021358;28;20046;-72
2022/05/04 05:43:04;;;;;;;7.53;3.67;;;;;;;16.58;40.38;102076.34;5029824;28;20013;-72
2022/05/04 05:45:30;;;;;;;11.27;4.20;;;;;;;16.36;40.10;102084.59;5026683;28;20098;-72
2022/05/04 05:47:55;;;;;;;8.73;4.33;;;;;;;16.58;40.10;102077.22;5029796;28;20018;-72
2022/05/04 05:50:20;;;;;;;12.17;4.67;;;;;;;16.60;39.48;102079.84;5027320;28;20021;-72
2022/05/04 05:52:46;;;;;;;7.17;4.00;;;;;;;16.71;40.01;102082.31;5022727;28;20025;-72
2022/05/04 05:55:11;;;;;;;10.33;4.60;;;;;;;17.03;39.38;102073.88;5027557;28;20024;-72
2022/05/04 05:57:36;;;;;;;13.77;4.33;;;;;;;17.03;39.28;102078.28;5030603;28;20064;-72
2022/05/04 06:00:03;;;;;;;14.50;4.47;;;;;;;16.49;39.99;102081.78;5011262;28;20041;-73
2022/05/04 06:02:29;;;;;;;11.67;4.00;;;;;;;16.60;40.06;102091.25;5025030;28;20087;-73
2022/05/04 06:04:55;;;;;;;11.90;4.47;;;;;;;17.27;38.66;102082.28;5042045;28;20025;-71
2022/05/04 06:07:21;;;;;;;14.70;5.00;;;;;;;16.54;39.58;102090.47;5028845;28;20477;-72
2022/05/04 06:09:46;;;;;;;13.70;3.60;;;;;;;17.53;38.20;102088.81;5025527;28;20025;-72
2022/05/04 06:12:12;;;;;;;14.37;4.90;;;;;;;17.81;37.11;102082.09;5026129;28;20029;-72
2022/05/04 06:14:37;;;;;;;8.97;3.80;;;;;;;17.79;37.72;102086.56;5029192;28;20058;-72
2022/05/04 06:17:02;;;;;;;15.13;4.20;;;;;;;17.63;37.50;102085.13;5028127;28;20083;-72
2022/05/04 06:19:28;;;;;;;6.83;3.63;;;;;;;17.86;37.10;102089.06;5033260;28;20097;-72
2022/05/04 06:21:53;;;;;;;11.03;4.53;;;;;;;18.21;36.90;102090.97;5031906;28;20670;-72
2022/05/04 06:24:18;;;;;;;8.77;2.83;;;;;;;17.65;35.89;102083.28;5029848;28;20217;-72
2022/05/04 06:26:44;;;;;;;10.43;3.77;;;;;;;18.17;35.84;102089.31;5032019;28;20529;-72
2022/05/04 06:29:09;;;;;;;9.03;3.73;;;;;;;17.34;37.30;102094.47;5033990;28;20555;-72
2022/05/04 06:34:18;;;;;;;7.30;3.80;;;;;;;17.75;35.93;102090.16;5028911;28;20064;-72
2022/05/04 06:36:44;;;;;;;15.53;3.97;;;;;;;17.21;36.63;102087.66;5004075;28;20053;-72
2022/05/04 06:39:10;;;;;;;12.33;3.93;;;;;;;17.30;35.76;102093.66;5025336;28;20034;-73
2022/05/04 06:41:37;;;;;;;12.13;3.60;;;;;;;18.01;35.63;102102.03;5027254;28;20044;-72
2022/05/04 06:44:06;;;;;;;9.17;3.77;;;;;;;17.44;35.87;102095.16;5029606;28;20104;-72
2022/05/04 06:46:32;;;;;;;10.93;4.20;;;;;;;17.72;35.38;102099.91;5051541;28;20037;-72
2022/05/04 06:48:57;;;;;;;9.87;3.93;;;;;;;17.34;36.03;102099.75;5032352;28;20053;-72
2022/05/04 06:51:23;;;;;;;13.93;3.13;;;;;;;19.47;33.37;102096.78;5031507;28;20036;-72
2022/05/04 06:53:49;;;;;;;14.80;3.53;;;;;;;21.01;30.43;102096.56;5033139;28;20033;-72
2022/05/04 06:56:14;;;;;;;8.27;3.43;;;;;;;21.34;29.66;102094.53;5019259;28;20037;-72
2022/05/04 06:58:40;;;;;;;7.23;2.77;;;;;;;22.64;27.40;102097.66;5031778;28;20029;-72
2022/05/04 07:01:06;;;;;;;7.72;3.13;;;;;;;22.95;26.56;102091.03;5033987;28;20067;-72
2022/05/04 07:03:32;;;;;;;4.00;2.55;;;;;;;23.01;26.36;102092.56;5035858;28;20033;-71
2022/05/04 07:05:58;;;;;;;7.50;2.25;;;;;;;23.74;24.62;102100.09;5034745;28;20547;-72
2022/05/04 07:08:23;;;;;;;9.50;2.95;;;;;;;24.80;25.76;102089.75;5032466;28;20029;-71
2022/05/04 07:10:49;;;;;;;5.20;2.75;;;;;;;23.82;25.15;102101.50;5030032;28;20030;-72
2022/05/04 07:13:14;;;;;;;6.93;3.15;;;;;;;25.56;24.52;102097.41;5043497;28;20022;-72
2022/05/04 07:15:39;;;;;;;4.50;2.50;;;;;;;27.52;20.64;102095.22;5026925;28;20044;-72
2022/05/04 07:18:05;;;;;;;6.93;2.30;;;;;;;26.94;21.45;102087.03;5028624;28;20105;-71
2022/05/04 07:20:30;;;;;;;5.00;2.70;;;;;;;27.68;20.42;102097.81;5030913;28;20053;-72
2022/05/04 07:22:56;;;;;;;8.80;3.05;;;;;;;28.01;20.58;102099.34;5028454;28;20476;-72
2022/05/04 07:25:21;;;;;;;7.68;3.08;;;;;;;27.41;20.99;102085.16;5027271;28;20122;-72
2022/05/04 07:27:46;;;;;;;7.78;3.30;;;;;;;26.91;21.02;102098.84;5034227;28;20107;-72
2022/05/04 07:30:12;;;;;;;9.13;3.63;;;;;;;24.42;24.28;102103.16;5033236;28;20021;-72
2022/05/04 07:32:40;;;;;;;5.72;2.83;;;;;;;25.22;22.62;102093.84;4998664;28;20120;-72
2022/05/04 07:35:08;;;;;;;4.38;2.47;;;;;;;25.74;23.98;102095.53;5018868;28;20464;-71
2022/05/04 07:37:34;;;;;;;4.07;2.50;;;;;;;26.12;22.60;102091.75;5032651;28;20048;-72
2022/05/04 07:42:43;;;;;;;5.55;2.65;;;;;;;27.54;20.36;102086.09;5034770;28;20044;-72
2022/05/04 07:45:11;;;;;;;9.00;3.38;;;;;;;27.72;21.29;102094.81;5032556;28;20029;-72
2022/05/04 07:47:37;;;;;;;6.90;3.13;;;;;;;28.40;20.33;102097.72;5034275;28;20025;-72
2022/05/04 07:50:05;;;;;;;7.07;3.10;;;;;;;27.61;20.05;102091.13;5024959;28;20025;-73
2022/05/04 07:52:30;;;;;;;7.93;3.10;;;;;;;26.00;21.49;102090.56;5033604;28;20036;-73
2022/05/04 07:54:55;;;;;;;6.55;2.60;;;;;;;28.90;20.28;102082.72;5033313;28;20029;-72
2022/05/04 07:57:21;;;;;;;8.77;2.90;;;;;;;29.89;17.97;102083.91;5030592;28;20029;-72
2022/05/04 08:05:16;;;;;;;7.45;3.72;;;;;;;29.61;19.86;102090.41;5025775;28;20052;-71
2022/05/04 08:07:41;;;;;;;6.68;4.15;;;;;;;30.52;18.45;102100.00;5027313;28;20033;-73
2022/05/04 08:10:07;;;;;;;10.77;3.97;;;;;;;29.39;18.99;102085.69;5034747;28;20061;-72
2022/05/04 08:12:33;;;;;;;13.82;4.50;;;;;;;28.50;20.45;102098.81;5029069;28;20026;-72
2022/05/04 08:14:59;;;;;;;5.72;3.50;;;;;;;27.47;20.82;102094.66;5023009;28;20481;-72
2022/05/04 08:17:24;;;;;;;8.57;4.20;;;;;;;29.10;19.48;102091.25;5028093;28;20026;-72
2022/05/04 08:19:49;;;;;;;10.90;4.05;;;;;;;31.38;17.33;102092.53;5012096;28;20111;-72
2022/05/04 08:22:15;;;;;;;9.07;3.80;;;;;;;31.45;18.06;102093.75;5026167;28;20056;-73
2022/05/04 08:24:40;;;;;;;6.40;3.55;;;;;;;31.59;17.92;102095.38;5037518;28;20465;-72
2022/05/04 08:27:06;;;;;;;9.32;3.63;;;;;;;28.61;19.20;102088.22;5031475;28;20039;-72
2022/05/04 08:29:31;;;;;;;8.57;4.30;;;;;;;28.96;20.07;102091.34;5020608;28;20481;-71
2022/05/04 08:31:58;;;;;;;11.82;3.60;;;;;;;29.86;19.39;102092.22;5027444;28;20531;-72
2022/05/04 08:34:24;;;;;;;8.85;3.63;;;;;;;29.68;18.81;102098.94;5028245;28;20025;-72
2022/05/04 08:36:49;;;;;;;5.20;3.47;;;;;;;29.37;19.52;102093.00;5043137;28;20025;-72
2022/05/04 08:39:14;;;;;;;8.93;3.63;;;;;;;30.42;18.56;102088.16;5027586;28;20029;-72
2022/05/04 08:41:42;;;;;;;6.47;4.10;;;;;;;28.77;19.32;102092.59;5030241;28;20148;-72
2022/05/04 08:44:09;;;;;;;8.82;4.03;;;;;;;28.24;19.79;102101.41;5027423;28;20091;-72
2022/05/04 08:46:42;;;;;;;10.07;4.20;;;;;;;29.63;19.44;102096.53;5025556;28;20029;-72
2022/05/04 08:49:08;;;;;;;9.93;4.15;;;;;;;29.57;20.31;102095.16;5026262;28;20095;-72
2022/05/04 08:51:35;;;;;;;8.55;4.05;;;;;;;29.16;20.74;102093.50;5031329;28;20032;-72
2022/05/04 08:54:02;;;;;;;11.32;3.97;;;;;;;28.25;19.91;102096.91;5031291;28;20109;-72
2022/05/04 08:56:28;;;;;;;7.53;3.50;;;;;;;29.01;19.56;102094.56;5030268;28;20424;-72
2022/05/04 08:58:53;;;;;;;7.50;4.22;;;;;;;28.17;20.93;102099.22;5037501;28;20095;-72
2022/05/04 09:01:19;;;;;;;8.57;4.70;;;;;;;28.89;19.18;102094.47;5031345;28;20450;-72
2022/05/04 09:03:44;;;;;;;10.75;4.70;;;;;;;29.28;20.45;102081.91;5028458;28;20040;-72
2022/05/04 09:06:09;;;;;;;7.45;4.35;;;;;;;29.51;18.89;102092.03;5031101;28;20025;-72
2022/05/04 09:09:04;;;;;;;9.45;4.55;;;;;;;31.06;18.85;102087.81;5029554;28;20083;-72
2022/05/04 09:11:32;;;;;;;9.55;4.80;;;;;;;31.11;17.62;102092.88;5024785;28;20025;-72
2022/05/04 09:13:58;;;;;;;7.97;4.13;;;;;;;31.85;17.60;102095.13;5028195;28;20033;-72
2022/05/04 09:16:39;;;;;;;8.00;4.32;;;;;;;30.12;19.22;102098.41;5027982;28;20022;-72
2022/05/04 09:19:07;;;;;;;7.75;4.13;;;;;;;29.04;20.15;102097.06;5031433;28;20021;-72
2022/05/04 09:21:33;;;;;;;9.45;4.38;;;;;;;29.09;18.68;102092.22;5029272;28;20022;-72
2022/05/04 09:23:58;;;;;;;6.72;4.35;;;;;;;30.12;19.12;102092.16;5029170;28;20040;-72
2022/05/04 09:26:24;;;;;;;8.02;4.15;;;;;;;30.07;18.90;102084.41;5031167;28;20052;-72
2022/05/04 09:28:51;;;;;;;9.15;4.40;;;;;;;29.89;18.78;102073.13;5023066;28;20067;-72
2022/05/04 09:31:20;;;;;;;6.35;4.47;;;;;;;30.95;18.81;102085.94;5029027;28;20025;-72
2022/05/04 09:33:56;;;;;;;9.68;5.45;;;;;;;30.17;19.77;102075.63;5026243;28;20109;-72
2022/05/04 09:36:32;;;;;;;7.70;4.70;;;;;;;31.62;17.62;102072.69;5028669;28;20473;-72
2022/05/04 09:47:19;;;;;;;11.05;4.78;;;;;;;29.28;19.16;102065.75;5029995;28;20473;-71
2022/05/04 09:49:47;;;;;;;5.53;4.13;;;;;;;30.19;19.14;102061.06;5025082;28;20060;-71
2022/05/04 09:52:14;;;;;;;7.57;4.03;;;;;;;29.37;20.58;102066.94;5031197;28;20474;-71
2022/05/04 09:54:39;;;;;;;7.65;4.85;;;;;;;28.80;20.69;102062.81;5028609;28;20025;-71
2022/05/04 09:57:06;;;;;;;7.38;3.42;;;;;;;25.59;23.20;102068.75;5026966;28;20033;-69
2022/05/04 09:59:34;;;;;;;8.90;3.72;;;;;;;24.98;23.62;102057.66;5027459;28;20041;-71
2022/05/04 10:02:02;;;;;;;7.28;3.95;;;;;;;26.09;23.04;102065.13;5029791;28;20108;-71
2022/05/04 10:04:28;;;;;;;9.05;5.20;;;;;;;28.63;20.60;102063.94;5012185;28;20120;-71
2022/05/04 10:06:54;;;;;;;9.50;4.38;;;;;;;27.54;20.50;102072.69;5015333;28;20032;-72
2022/05/04 10:09:21;;;;;;;8.02;3.72;;;;;;;26.91;21.00;102069.34;5030117;28;20079;-71
2022/05/04 10:11:47;;;;;;;11.00;3.90;;;;;;;25.53;23.58;102076.16;5029496;28;20034;-71
2022/05/04 10:14:15;;;;;;;9.27;3.92;;;;;;;26.30;22.79;102067.56;5028353;28;20083;-70
2022/05/04 10:16:59;;;;;;;7.47;4.13;;;;;;;28.10;20.81;102077.25;5029209;28;20033;-71
2022/05/04 10:19:42;;;;;;;7.90;4.00;;;;;;;28.70;20.12;102069.75;5022971;28;20025;-71
2022/05/04 10:22:12;;;;;;;6.43;4.07;;;;;;;28.19;20.59;102071.28;5021158;28;20576;-71
2022/05/04 10:24:38;;;;;;;10.10;4.60;;;;;;;27.41;20.91;102067.22;5024905;28;20094;-70
2022/05/04 10:27:21;;;;;;;8.10;3.78;;;;;;;28.29;20.95;102065.28;5027217;28;20032;-71
2022/05/04 10:32:46;;;;;;;7.40;4.22;;;;;;;28.70;19.95;102059.88;5030236;28;19971;-71
2022/05/04 10:35:20;;;;;;;7.57;3.75;;;;;;;26.35;22.80;102065.44;5028628;28;20672;-71
2022/05/04 10:37:53;;;;;;;10.73;4.75;;;;;;;27.33;21.31;102060.59;5027730;28;20033;-71
2022/05/04 10:40:27;;;;;;;8.10;4.28;;;;;;;26.95;23.06;102045.00;5041365;28;20073;-71
2022/05/04 10:42:55;;;;;;;10.52;4.93;;;;;;;30.76;18.42;102047.84;5027930;28;20033;-71
2022/05/04 10:45:23;;;;;;;9.43;4.47;;;;;;;29.35;20.44;102059.97;5042834;28;20052;-71
2022/05/04 10:47:49;;;;;;;8.70;4.25;;;;;;;29.21;19.59;102052.81;5029488;28;20211;-72
2022/05/04 10:50:18;;;;;;;8.32;4.97;;;;;;;29.58;20.56;102055.59;5032136;28;20382;-71
2022/05/04 10:52:47;;;;;;;7.32;4.47;;;;;;;28.56;19.85;102052.72;5028081;28;20080;-71
2022/05/04 10:55:13;;;;;;;12.90;4.88;;;;;;;30.02;20.17;102053.38;5028513;28;20096;-72
2022/05/04 10:57:40;;;;;;;7.93;4.15;;;;;;;29.98;19.45;102057.25;5027752;28;20032;-71
2022/05/04 11:00:06;;;;;;;9.07;4.43;;;;;;;29.74;19.71;102049.97;5029938;28;20434;-71
2022/05/04 11:02:32;;;;;;;9.05;4.07;;;;;;;32.36;17.78;102054.97;5011131;28;20048;-71
2022/05/04 11:05:11;;;;;;;7.68;4.18;;;;;;;30.67;17.83;102059.38;5028331;28;20494;-71
2022/05/04 11:07:36;;;;;;;10.57;4.15;;;;;;;30.10;18.46;102054.53;5028940;28;20500;-70
2022/05/04 11:10:02;;;;;;;9.82;4.40;;;;;;;28.44;19.51;102053.53;5027828;28;20025;-71
2022/05/04 11:12:27;;;;;;;9.70;4.38;;;;;;;28.80;19.81;102049.34;5029596;28;20044;-71
2022/05/04 11:14:53;;;;;;;7.75;4.45;;;;;;;29.58;20.06;102055.59;5028748;28;20029;-71
2022/05/04 11:17:18;;;;;;;9.93;4.38;;;;;;;31.53;17.79;102046.34;5028135;28;20120;-71
2022/05/04 11:19:46;;;;;;;7.75;5.15;;;;;;;31.78;16.68;102050.69;5028010;28;20548;-71
2022/05/04 11:22:13;;;;;;;10.45;4.90;;;;;;;32.65;16.87;102038.97;5028788;28;20028;-71
2022/05/04 11:24:38;;;;;;;7.88;4.07;;;;;;;32.56;17.21;102040.63;5010475;28;20038;-70
2022/05/04 11:27:04;;;;;;;8.70;3.88;;;;;;;32.13;17.50;102042.34;5028072;28;20052;-71
2022/05/04 11:29:30;;;;;;;7.30;4.03;;;;;;;31.67;17.95;102037.16;5027832;28;20497;-71
2022/05/04 11:32:01;;;;;;;7.15;3.88;;;;;;;30.99;19.51;102031.72;5014195;28;20025;-70
2022/05/04 11:34:33;;;;;;;7.85;4.40;;;;;;;29.99;18.89;102042.81;5032080;28;20036;-72
2022/05/04 11:37:07;;;;;;;9.63;4.55;;;;;;;31.72;18.86;102037.66;5028834;28;20111;-71
2022/05/04 11:39:33;;;;;;;10.30;4.20;;;;;;;31.74;18.07;102033.00;5039252;28;20392;-71
2022/05/04 11:42:01;;;;;;;9.40;5.20;;;;;;;30.20;18.79;102029.56;5026652;28;20041;-72
2022/05/04 11:44:28;;;;;;;6.93;4.35;;;;;;;30.81;19.36;102029.47;5027526;28;20385;-71
2022/05/04 11:46:56;;;;;;;6.63;3.72;;;;;;;31.72;17.50;102024.16;5025923;28;20039;-72
2022/05/04 11:49:27;;;;;;;7.93;3.88;;;;;;;29.77;18.84;102018.31;5026895;28;20041;-71
2022/05/04 11:51:54;;;;;;;8.45;4.70;;;;;;;31.66;18.14;102027.38;5029099;28;20030;-71